Decoded Metar for KMIC (MNPLS/CRYSTAL in MN, USA) (IATA:MIC) | Meteo·Mobile Aviation Weather
aviador You're here:

KMIC Decoded Metar

MNPLS/CRYSTAL in MN, USA
Report Time2018-11-21 07:53:00
UTC Time2018-11-21 08:03:10
Flight Rules mvfr MVFR
Wind020° at 06 kt
W.Decomp.*RWY 06: 4.5 kt HW 4 kt LCW
RWY 32: 3.2 kt HW 5.1 kt RCW
W.Rank020° ranks 24
Current wind is below 020° avg. (6.8)
Visibility9999 m
Phenomena:N/A
Clouds:Overcast 021 Hf
Expected CloudBase > 2,000 ft AGL from Temp-Dew spread
Ceiling2,100 ft
Temp-1°C (ISA -14)
Dew Point-6°C (69% RH)
AAT-5.9°C
QNH1021 hPa
Density Alt-1,089 ft
Elevation869 ft
Report Wrong Elevation
Raw Report
KMIC 210753Z AUTO 02006KT 10SM OVC021 M01/M06 A3015 RMK AO2 SLP222
T10111061=

Extra information for KMIC:More info

Metar Taf Metar & Taf Last 4 Metars F.Rules Stats Wind Profile Meteogram Temp Stats Airport Information Weather charts Add Link Nearby VenuesMetar ALERT Operation Metar Decoded Social comments

AIRNAV info for KMIC